createdAt,value
2019-05-02T00:00:53.040Z,14.90
2019-05-02T00:03:19.967Z,14.67
2019-05-02T00:05:46.064Z,14.61
2019-05-02T00:08:12.195Z,14.51
2019-05-02T00:10:38.379Z,14.39
2019-05-02T00:13:04.658Z,14.30
2019-05-02T00:15:33.122Z,14.24
2019-05-02T00:18:01.418Z,14.28
2019-05-02T00:20:27.163Z,14.15
2019-05-02T00:22:53.460Z,14.13
2019-05-02T00:25:19.565Z,14.14
2019-05-02T00:27:45.735Z,14.10
2019-05-02T00:30:12.836Z,14.12
2019-05-02T00:32:38.803Z,14.17
2019-05-02T00:35:05.270Z,14.11
2019-05-02T00:37:31.115Z,14.06
2019-05-02T00:39:57.194Z,14.05
2019-05-02T00:42:24.116Z,14.04
2019-05-02T00:44:50.197Z,14.08
2019-05-02T00:47:20.674Z,14.10
2019-05-02T00:49:47.336Z,14.02
2019-05-02T00:52:13.382Z,14.07
2019-05-02T00:54:39.210Z,13.97
2019-05-02T00:57:05.036Z,13.87
2019-05-02T00:59:30.952Z,13.86
2019-05-02T01:02:00.019Z,13.74
2019-05-02T01:04:29.081Z,13.65
2019-05-02T01:06:55.469Z,13.59
2019-05-02T01:09:21.502Z,13.63
2019-05-02T01:11:47.546Z,13.57
2019-05-02T01:14:13.527Z,13.64
2019-05-02T01:16:39.406Z,13.63
2019-05-02T01:19:05.366Z,13.56
2019-05-02T01:21:34.039Z,13.44
2019-05-02T01:24:03.022Z,13.50
2019-05-02T01:26:29.459Z,13.49
2019-05-02T01:28:58.377Z,13.44
2019-05-02T01:31:29.293Z,13.34
2019-05-02T01:34:02.940Z,13.47
2019-05-02T01:36:42.929Z,13.41
2019-05-02T01:39:10.748Z,13.35
2019-05-02T01:41:36.831Z,13.60
2019-05-02T01:44:03.393Z,13.56
2019-05-02T01:46:29.282Z,13.46
2019-05-02T01:48:55.227Z,13.46
2019-05-02T01:51:21.085Z,13.41
2019-05-02T01:53:47.012Z,13.40
2019-05-02T01:56:13.064Z,13.45
2019-05-02T01:58:39.231Z,13.44
2019-05-02T02:01:05.398Z,13.34
2019-05-02T02:03:31.421Z,13.31
2019-05-02T02:05:57.328Z,13.28
2019-05-02T02:08:27.266Z,13.24
2019-05-02T02:10:56.474Z,13.37
2019-05-02T02:13:19.348Z,13.29
2019-05-02T02:15:45.329Z,13.18
2019-05-02T02:18:12.589Z,13.14
2019-05-02T02:20:57.131Z,13.03
2019-05-02T02:23:25.085Z,13.01
2019-05-02T02:25:58.747Z,13.01
2019-05-02T02:28:24.624Z,13.02
2019-05-02T02:30:50.572Z,12.99
2019-05-02T02:33:16.675Z,13.01
2019-05-02T02:35:49.621Z,12.98
2019-05-02T02:38:10.587Z,13.03
2019-05-02T02:40:36.497Z,12.98
2019-05-02T02:43:12.822Z,13.05
2019-05-02T02:45:51.956Z,13.05
2019-05-02T02:48:15.427Z,13.01
2019-05-02T02:50:43.227Z,13.03
2019-05-02T02:53:09.270Z,12.98
2019-05-02T02:55:35.109Z,12.86
2019-05-02T02:58:04.689Z,12.94
2019-05-02T03:00:29.024Z,12.79
2019-05-02T03:02:54.970Z,12.71
2019-05-02T03:05:25.897Z,12.66
2019-05-02T03:07:49.175Z,12.60
2019-05-02T03:10:15.116Z,12.57
2019-05-02T03:12:43.283Z,12.49
2019-05-02T03:15:20.845Z,12.40
2019-05-02T03:17:45.451Z,12.23
2019-05-02T03:20:11.511Z,12.27
2019-05-02T03:22:41.917Z,12.22
2019-05-02T03:25:05.558Z,12.19
2019-05-02T03:27:37.999Z,12.37
2019-05-02T03:29:59.487Z,12.37
2019-05-02T03:32:33.412Z,12.40
2019-05-02T03:34:54.301Z,12.40
2019-05-02T03:37:20.541Z,12.41
2019-05-02T03:39:49.456Z,12.52
2019-05-02T03:42:14.444Z,12.33
2019-05-02T03:44:40.485Z,12.40
2019-05-02T03:47:06.740Z,12.37
2019-05-02T03:49:32.830Z,12.31
2019-05-02T03:52:03.028Z,12.37
2019-05-02T03:54:31.841Z,12.46
2019-05-02T03:56:57.993Z,12.52
2019-05-02T03:59:37.235Z,12.36
2019-05-02T04:01:52.754Z,12.29
2019-05-02T04:04:20.621Z,12.29
2019-05-02T04:06:46.579Z,12.28
2019-05-02T04:09:39.083Z,12.27
2019-05-02T04:12:02.607Z,12.26
2019-05-02T04:14:37.672Z,12.24
2019-05-02T04:16:57.654Z,12.29
2019-05-02T04:19:28.715Z,12.30
2019-05-02T04:21:54.985Z,12.33
2019-05-02T04:24:22.410Z,12.40
2019-05-02T04:26:53.655Z,12.44
2019-05-02T04:29:17.788Z,12.36
2019-05-02T04:31:43.921Z,12.25
2019-05-02T04:34:15.136Z,12.27
2019-05-02T04:36:37.849Z,12.31
2019-05-02T04:39:05.987Z,12.30
2019-05-02T04:41:34.299Z,12.21
2019-05-02T04:44:01.585Z,12.23
2019-05-02T04:46:31.211Z,12.24
2019-05-02T04:48:58.769Z,12.22
2019-05-02T04:51:27.443Z,12.18
2019-05-02T04:53:51.824Z,12.19
2019-05-02T04:56:18.672Z,12.20
2019-05-02T04:58:44.687Z,12.25
2019-05-02T05:01:10.759Z,12.28
2019-05-02T05:03:37.628Z,12.28
2019-05-02T05:06:08.013Z,12.29
2019-05-02T05:08:32.123Z,12.30
2019-05-02T05:10:58.355Z,12.33
2019-05-02T05:13:26.488Z,12.38
2019-05-02T05:15:52.224Z,12.40
2019-05-02T05:18:18.154Z,12.44
2019-05-02T05:20:45.929Z,12.52
2019-05-02T05:23:15.691Z,12.55
2019-05-02T05:25:43.384Z,12.63
2019-05-02T05:28:09.377Z,12.75
2019-05-02T05:30:37.666Z,12.79
2019-05-02T05:33:03.513Z,12.80
2019-05-02T05:35:29.551Z,12.89
2019-05-02T05:37:57.251Z,12.89
2019-05-02T05:40:30.334Z,12.84
2019-05-02T05:42:51.065Z,12.92
2019-05-02T05:45:17.452Z,13.03
2019-05-02T05:47:43.379Z,13.03
2019-05-02T05:50:10.021Z,13.14
2019-05-02T05:52:38.842Z,13.28
2019-05-02T05:55:05.191Z,13.31
2019-05-02T05:57:31.164Z,13.45
2019-05-02T05:59:58.422Z,13.66
2019-05-02T06:02:24.631Z,13.71
2019-05-02T06:04:55.186Z,13.74
2019-05-02T06:07:20.174Z,13.85
2019-05-02T06:09:46.125Z,13.85
2019-05-02T06:12:12.047Z,13.92
2019-05-02T06:14:38.189Z,13.93
2019-05-02T06:17:04.290Z,13.96
2019-05-02T06:19:30.240Z,13.97
2019-05-02T06:21:56.271Z,14.10
2019-05-02T06:24:22.142Z,14.14
2019-05-02T06:26:49.919Z,14.21
2019-05-02T06:29:18.705Z,14.25
2019-05-02T06:31:44.467Z,14.31
2019-05-02T06:34:10.452Z,14.43
2019-05-02T06:36:38.015Z,14.49
2019-05-02T06:39:05.376Z,14.59
2019-05-02T06:41:31.354Z,14.87
2019-05-02T06:43:57.229Z,14.89
2019-05-02T06:46:27.828Z,15.12
2019-05-02T06:48:52.258Z,15.14
2019-05-02T06:51:20.850Z,15.13
2019-05-02T06:53:46.953Z,15.09
2019-05-02T06:56:14.298Z,15.14
2019-05-02T06:58:42.084Z,15.16
2019-05-02T07:01:08.170Z,15.38
2019-05-02T07:03:33.989Z,15.34
2019-05-02T07:06:02.855Z,15.40
2019-05-02T07:08:27.959Z,15.43
2019-05-02T07:10:55.986Z,15.46
2019-05-02T07:13:21.986Z,15.54
2019-05-02T07:16:02.100Z,15.59
2019-05-02T07:18:29.930Z,15.89
2019-05-02T07:20:55.875Z,15.88
2019-05-02T07:23:21.774Z,16.02
2019-05-02T07:25:47.833Z,16.05
2019-05-02T07:28:13.670Z,16.04
2019-05-02T07:30:39.625Z,16.04
2019-05-02T07:33:05.485Z,16.10
2019-05-02T07:35:31.442Z,16.19
2019-05-02T07:37:57.387Z,16.37
2019-05-02T07:40:23.520Z,16.46
2019-05-02T07:42:49.563Z,16.44
2019-05-02T07:45:15.589Z,16.48
2019-05-02T07:47:42.470Z,16.57
2019-05-02T07:50:11.811Z,16.53
2019-05-02T07:52:40.945Z,16.64
2019-05-02T07:55:07.392Z,16.76
2019-05-02T07:57:34.001Z,16.84
2019-05-02T08:00:02.445Z,16.93
2019-05-02T08:02:27.853Z,16.84
2019-05-02T08:04:53.897Z,16.92
2019-05-02T08:07:21.249Z,17.09
2019-05-02T08:09:47.666Z,16.97
2019-05-02T08:12:13.730Z,17.09
2019-05-02T08:14:39.627Z,17.17
2019-05-02T08:17:10.592Z,17.10
2019-05-02T08:19:37.549Z,17.15
2019-05-02T08:22:04.666Z,17.25
2019-05-02T08:24:33.051Z,17.34
2019-05-02T08:27:05.011Z,17.39
2019-05-02T08:29:30.937Z,17.51
2019-05-02T08:31:56.937Z,17.37
2019-05-02T08:34:30.426Z,17.46
2019-05-02T08:36:58.862Z,17.56
2019-05-02T08:39:25.972Z,17.62
2019-05-02T08:41:56.430Z,17.73
2019-05-02T08:44:21.742Z,17.77
2019-05-02T08:46:51.422Z,17.86
2019-05-02T08:49:18.806Z,17.87
2019-05-02T08:51:43.731Z,17.92
2019-05-02T08:54:09.811Z,17.99
2019-05-02T08:56:35.892Z,18.09
2019-05-02T08:59:01.924Z,17.99
2019-05-02T09:01:35.004Z,18.16
2019-05-02T09:03:57.053Z,18.28
2019-05-02T09:06:24.188Z,18.14
2019-05-02T09:08:51.357Z,18.28
2019-05-02T09:11:18.205Z,18.29
2019-05-02T09:13:46.014Z,18.41
2019-05-02T09:16:12.137Z,18.34
2019-05-02T09:18:45.883Z,18.45
2019-05-02T09:21:05.986Z,18.44
2019-05-02T09:23:33.155Z,18.51
2019-05-02T09:25:59.791Z,18.56
2019-05-02T09:28:25.729Z,18.59
2019-05-02T09:30:52.413Z,18.68
2019-05-02T09:33:18.518Z,18.68
2019-05-02T09:35:44.485Z,18.81
2019-05-02T09:38:12.489Z,18.61
2019-05-02T09:40:38.036Z,18.92
2019-05-02T09:43:04.817Z,19.02
2019-05-02T09:45:37.207Z,19.02
2019-05-02T09:48:05.235Z,19.02
2019-05-02T09:50:31.428Z,19.09
2019-05-02T09:52:56.475Z,19.25
2019-05-02T09:55:22.744Z,19.34
2019-05-02T09:57:48.686Z,19.22
2019-05-02T10:00:19.579Z,19.24
2019-05-02T10:02:45.663Z,19.34
2019-05-02T10:05:12.701Z,19.47
2019-05-02T10:07:38.559Z,19.38
2019-05-02T10:10:06.959Z,19.26
2019-05-02T10:12:32.795Z,19.15
2019-05-02T10:14:58.668Z,19.33
2019-05-02T10:17:25.330Z,19.28
2019-05-02T10:19:56.762Z,19.46
2019-05-02T10:22:20.200Z,19.49
2019-05-02T10:24:46.218Z,19.41
2019-05-02T10:27:12.635Z,19.51
2019-05-02T10:29:38.637Z,19.67
2019-05-02T10:32:07.700Z,19.61
2019-05-02T10:34:33.023Z,19.68
2019-05-02T10:37:00.399Z,19.67
2019-05-02T10:39:28.496Z,20.13
2019-05-02T10:41:57.441Z,20.11
2019-05-02T10:44:22.709Z,20.27
2019-05-02T10:46:58.658Z,20.38
2019-05-02T10:49:34.524Z,20.06
2019-05-02T10:52:02.507Z,19.85
2019-05-02T10:54:33.685Z,19.86
2019-05-02T10:56:56.000Z,19.99
2019-05-02T10:59:22.155Z,20.40
2019-05-02T11:01:53.102Z,20.49
2019-05-02T11:04:18.997Z,21.01
2019-05-02T11:06:46.270Z,20.58
2019-05-02T11:09:16.720Z,20.69
2019-05-02T11:11:42.532Z,20.47
2019-05-02T11:14:19.455Z,20.46
2019-05-02T11:16:52.284Z,20.59
2019-05-02T11:19:25.793Z,20.67
2019-05-02T11:21:56.301Z,20.77
2019-05-02T11:24:19.448Z,21.06
2019-05-02T11:26:45.457Z,21.04
2019-05-02T11:29:12.144Z,20.86
2019-05-02T11:31:38.180Z,21.17
2019-05-02T11:34:04.270Z,21.28
2019-05-02T11:36:30.123Z,21.47
2019-05-02T11:39:05.101Z,21.37
2019-05-02T11:41:24.066Z,21.29
2019-05-02T11:43:52.448Z,21.57
2019-05-02T11:46:18.335Z,21.16
2019-05-02T11:48:55.591Z,21.51
2019-05-02T11:51:16.236Z,21.40
2019-05-02T11:53:41.958Z,21.66
2019-05-02T11:56:10.662Z,21.65
2019-05-02T11:58:35.430Z,22.25
2019-05-02T12:01:05.081Z,21.57
2019-05-02T12:03:40.011Z,21.75
2019-05-02T12:06:06.642Z,21.60
2019-05-02T12:08:33.857Z,22.16
2019-05-02T12:11:01.232Z,21.89
2019-05-02T12:13:27.582Z,22.22
2019-05-02T12:15:53.561Z,22.46
2019-05-02T12:18:21.164Z,22.48
2019-05-02T12:20:47.831Z,22.31
2019-05-02T12:23:13.772Z,22.31
2019-05-02T12:25:39.742Z,22.34
2019-05-02T12:28:05.830Z,22.99
2019-05-02T12:30:34.085Z,23.18
2019-05-02T12:32:59.613Z,23.26
2019-05-02T12:35:25.918Z,23.79
2019-05-02T12:37:55.154Z,23.34
2019-05-02T12:40:21.622Z,23.34
2019-05-02T12:42:47.564Z,23.07
2019-05-02T12:45:13.892Z,23.83
2019-05-02T12:47:39.962Z,24.34
2019-05-02T12:50:06.195Z,24.23
2019-05-02T12:52:32.154Z,24.35
2019-05-02T12:54:58.031Z,24.44
2019-05-02T12:57:23.956Z,23.67
2019-05-02T12:59:49.819Z,23.60
2019-05-02T13:02:17.728Z,23.67
2019-05-02T13:04:43.807Z,24.16
2019-05-02T13:07:09.760Z,24.37
2019-05-02T13:09:35.667Z,24.17
2019-05-02T13:12:03.724Z,24.69
2019-05-02T13:14:31.905Z,24.50
2019-05-02T13:17:01.200Z,25.58
2019-05-02T13:19:37.228Z,27.24
2019-05-02T13:22:12.617Z,28.81
2019-05-02T13:24:42.229Z,30.72
2019-05-02T13:27:13.137Z,29.71
2019-05-02T13:29:39.226Z,29.98
2019-05-02T13:32:16.933Z,29.23
2019-05-02T13:34:44.009Z,29.91
2019-05-02T13:37:12.399Z,28.75
2019-05-02T13:39:41.925Z,27.67
2019-05-02T13:42:08.191Z,28.20
2019-05-02T13:44:52.795Z,28.68
2019-05-02T13:47:21.835Z,26.84
2019-05-02T13:49:53.821Z,25.06
2019-05-02T13:52:15.874Z,26.32
2019-05-02T13:54:42.653Z,26.64
2019-05-02T13:57:08.713Z,27.90
2019-05-02T13:59:34.835Z,26.30
2019-05-02T14:02:02.712Z,29.70
2019-05-02T14:04:28.915Z,34.47
2019-05-02T14:06:54.763Z,35.18
2019-05-02T14:09:32.381Z,36.53
2019-05-02T14:12:18.687Z,37.62
2019-05-02T14:14:44.755Z,36.69
2019-05-02T14:17:11.729Z,39.15
2019-05-02T14:19:37.671Z,39.04
2019-05-02T14:22:03.662Z,37.09
2019-05-02T14:24:29.742Z,36.76
2019-05-02T14:26:55.567Z,37.21
2019-05-02T14:29:21.829Z,40.53
2019-05-02T14:31:47.867Z,40.51
2019-05-02T14:34:33.823Z,40.04
2019-05-02T14:37:01.945Z,39.34
2019-05-02T14:39:27.745Z,40.55
2019-05-02T14:41:53.707Z,41.25
2019-05-02T14:44:25.228Z,39.48
2019-05-02T14:46:47.537Z,41.27
2019-05-02T14:49:16.675Z,40.47
2019-05-02T14:51:41.759Z,39.03
2019-05-02T14:54:08.573Z,37.18
2019-05-02T14:56:53.445Z,35.67
2019-05-02T14:59:20.333Z,35.20
2019-05-02T15:01:49.597Z,34.87
2019-05-02T15:04:15.694Z,30.40
2019-05-02T15:06:45.372Z,28.55
2019-05-02T15:09:11.942Z,31.29
2019-05-02T15:11:39.305Z,31.74
2019-05-02T15:14:05.379Z,31.19
2019-05-02T15:16:40.506Z,33.10
2019-05-02T15:18:59.672Z,29.24
2019-05-02T15:21:27.434Z,27.88
2019-05-02T15:23:57.635Z,27.96
2019-05-02T15:26:21.352Z,28.67
2019-05-02T15:28:47.287Z,29.40
2019-05-02T15:31:19.069Z,30.33
2019-05-02T15:34:05.809Z,28.79
2019-05-02T15:36:32.368Z,30.12
2019-05-02T15:41:26.402Z,28.58
2019-05-02T15:43:52.495Z,27.49
2019-05-02T15:46:23.874Z,26.10
2019-05-02T15:48:46.153Z,25.71
2019-05-02T15:51:12.460Z,25.33
2019-05-02T15:54:04.820Z,26.33
2019-05-02T15:56:24.369Z,26.46
2019-05-02T15:58:52.224Z,26.08
2019-05-02T16:01:26.075Z,25.17
2019-05-02T16:03:53.866Z,24.79
2019-05-02T16:06:24.294Z,25.31
2019-05-02T16:08:47.914Z,25.96
2019-05-02T16:11:17.038Z,25.97
2019-05-02T16:13:47.077Z,27.32
2019-05-02T16:16:11.000Z,29.09
2019-05-02T16:18:41.097Z,29.54
2019-05-02T16:21:18.427Z,29.56
2019-05-02T16:24:10.912Z,28.96
2019-05-02T16:26:29.860Z,27.19
2019-05-02T16:28:55.746Z,26.83
2019-05-02T16:31:25.222Z,26.74
2019-05-02T16:33:49.874Z,25.54
2019-05-02T16:36:15.767Z,24.02
2019-05-02T16:38:42.463Z,23.70
2019-05-02T16:41:10.179Z,23.64
2019-05-02T16:43:36.662Z,23.34
2019-05-02T16:46:06.631Z,23.36
2019-05-02T16:48:37.422Z,23.23
2019-05-02T16:50:58.478Z,23.26
2019-05-02T16:53:26.161Z,23.20
2019-05-02T16:55:53.712Z,23.08
2019-05-02T16:58:19.744Z,23.01
2019-05-02T17:00:46.015Z,22.67
2019-05-02T17:03:12.662Z,22.61
2019-05-02T17:05:39.311Z,22.43
2019-05-02T17:08:18.918Z,22.40
2019-05-02T17:10:47.210Z,22.21
2019-05-02T17:13:14.256Z,22.06
2019-05-02T17:15:42.707Z,22.07
2019-05-02T17:18:13.420Z,21.99
2019-05-02T17:20:36.633Z,21.78
2019-05-02T17:23:07.265Z,21.42
2019-05-02T17:25:32.206Z,21.15
2019-05-02T17:28:02.466Z,19.92
2019-05-02T17:30:26.292Z,19.64
2019-05-02T17:32:52.289Z,18.56
2019-05-02T17:35:19.313Z,18.50
2019-05-02T17:37:48.807Z,18.00
2019-05-02T17:40:16.922Z,17.78
2019-05-02T17:42:43.235Z,17.65
2019-05-02T17:45:09.874Z,17.17
2019-05-02T17:47:36.515Z,16.61
2019-05-02T17:50:15.535Z,16.00
2019-05-02T17:52:37.601Z,15.90
2019-05-02T17:55:05.056Z,16.35
2019-05-02T17:57:33.499Z,16.57
2019-05-02T17:59:58.769Z,16.52
2019-05-02T18:02:24.691Z,16.64
2019-05-02T18:04:52.032Z,16.77
2019-05-02T18:07:18.331Z,16.83
2019-05-02T18:09:44.279Z,16.99
2019-05-02T18:12:12.735Z,16.97
2019-05-02T18:14:38.193Z,16.98
2019-05-02T18:17:04.275Z,17.11
2019-05-02T18:19:31.631Z,17.03
2019-05-02T18:21:58.241Z,17.08
2019-05-02T18:24:25.562Z,17.13
2019-05-02T18:26:51.741Z,17.20
2019-05-02T18:29:17.896Z,17.24
2019-05-02T18:31:47.401Z,17.33
2019-05-02T18:34:14.263Z,17.27
2019-05-02T18:36:41.628Z,17.38
2019-05-02T18:39:07.602Z,17.39
2019-05-02T18:41:37.281Z,17.44
2019-05-02T18:44:02.830Z,17.43
2019-05-02T18:46:28.902Z,17.35
2019-05-02T18:48:54.914Z,17.26
2019-05-02T18:51:21.845Z,17.33
2019-05-02T18:53:48.082Z,17.41
2019-05-02T18:56:14.059Z,17.38
2019-05-02T18:58:41.556Z,17.44
2019-05-02T19:01:12.961Z,17.39
2019-05-02T19:03:36.099Z,17.40
2019-05-02T19:06:03.235Z,17.37
2019-05-02T19:08:45.260Z,17.38
2019-05-02T19:11:10.026Z,17.52
2019-05-02T19:13:32.150Z,17.52
2019-05-02T19:15:56.760Z,17.48
2019-05-02T19:18:22.759Z,17.46
2019-05-02T19:20:57.163Z,17.42
2019-05-02T19:23:22.482Z,17.33
2019-05-02T19:25:48.328Z,17.08
2019-05-02T19:28:16.442Z,17.09
2019-05-02T19:30:42.593Z,17.05
2019-05-02T19:33:11.998Z,17.05
2019-05-02T19:35:43.130Z,16.99
2019-05-02T19:38:05.728Z,16.89
2019-05-02T19:40:31.899Z,16.86
2019-05-02T19:43:05.911Z,16.76
2019-05-02T19:45:25.659Z,16.66
2019-05-02T19:47:54.283Z,16.65
2019-05-02T19:50:32.250Z,16.65
2019-05-02T19:53:01.998Z,16.64
2019-05-02T19:55:27.467Z,16.56
2019-05-02T19:57:56.697Z,16.48
2019-05-02T20:00:21.839Z,16.51
2019-05-02T20:02:47.819Z,16.41
2019-05-02T20:05:16.462Z,16.39
2019-05-02T20:07:42.723Z,16.48
2019-05-02T20:10:09.331Z,16.63
2019-05-02T20:12:35.340Z,16.65
2019-05-02T20:15:01.628Z,16.63
2019-05-02T20:17:27.686Z,16.72
2019-05-02T20:19:57.890Z,16.77
2019-05-02T20:22:23.608Z,16.81
2019-05-02T20:24:58.300Z,16.81
2019-05-02T20:27:22.436Z,16.77
2019-05-02T20:29:48.673Z,16.83
2019-05-02T20:32:14.617Z,16.80
2019-05-02T20:34:41.873Z,16.79
2019-05-02T20:37:07.990Z,16.77
2019-05-02T20:39:33.981Z,16.73
2019-05-02T20:41:59.979Z,16.62
2019-05-02T20:44:25.845Z,16.59
2019-05-02T20:46:51.807Z,16.55
2019-05-02T20:49:17.687Z,16.53
2019-05-02T20:51:43.765Z,16.40
2019-05-02T20:54:09.790Z,16.39
2019-05-02T20:56:35.833Z,16.43
2019-05-02T20:59:02.120Z,16.49
2019-05-02T21:01:28.110Z,16.44
2019-05-02T21:03:54.106Z,16.45
2019-05-02T21:06:37.590Z,16.46
2019-05-02T21:08:54.882Z,16.47
2019-05-02T21:11:22.289Z,16.54
2019-05-02T21:13:48.254Z,16.56
2019-05-02T21:16:14.210Z,16.54
2019-05-02T21:18:42.101Z,16.48
2019-05-02T21:21:08.053Z,16.43
2019-05-02T21:23:43.843Z,16.35
2019-05-02T21:26:02.021Z,16.26
2019-05-02T21:28:28.043Z,16.31
2019-05-02T21:30:54.124Z,16.30
2019-05-02T21:33:31.927Z,16.15
2019-05-02T21:35:57.735Z,16.11
2019-05-02T21:38:23.589Z,16.05
2019-05-02T21:40:49.423Z,16.08
2019-05-02T21:43:15.358Z,16.02
2019-05-02T21:45:42.205Z,15.92
2019-05-02T21:48:08.199Z,15.91
2019-05-02T21:50:38.830Z,15.94
2019-05-02T21:53:06.578Z,15.95
2019-05-02T21:55:37.619Z,15.97
2019-05-02T21:58:03.881Z,15.94
2019-05-02T22:00:50.290Z,15.94
2019-05-02T22:03:16.529Z,15.91
2019-05-02T22:05:43.403Z,15.92
2019-05-02T22:08:09.596Z,15.85
2019-05-02T22:10:35.597Z,15.93
2019-05-02T22:13:02.129Z,15.91
2019-05-02T22:15:28.142Z,15.95
2019-05-02T22:17:54.108Z,15.86
2019-05-02T22:20:20.156Z,15.80
2019-05-02T22:22:46.093Z,15.73
2019-05-02T22:25:12.318Z,15.78
2019-05-02T22:27:38.249Z,15.80
2019-05-02T22:30:05.779Z,15.82
2019-05-02T22:32:32.183Z,15.80
2019-05-02T22:34:58.126Z,15.79
2019-05-02T22:37:25.151Z,15.80
2019-05-02T22:39:55.920Z,15.78
2019-05-02T22:42:22.038Z,15.74
2019-05-02T22:44:48.134Z,15.79
2019-05-02T22:47:14.224Z,15.76
2019-05-02T22:49:40.054Z,15.77
2019-05-02T22:52:06.100Z,15.73
2019-05-02T22:54:33.926Z,15.75
2019-05-02T22:56:59.862Z,15.68
2019-05-02T22:59:26.752Z,15.46
2019-05-02T23:01:52.915Z,15.25
2019-05-02T23:04:18.739Z,15.16
2019-05-02T23:06:45.244Z,14.83
2019-05-02T23:09:12.704Z,14.50
2019-05-02T23:11:38.883Z,14.55
2019-05-02T23:14:04.982Z,14.55
2019-05-02T23:16:32.256Z,14.61
2019-05-02T23:18:59.947Z,14.66
2019-05-02T23:21:26.027Z,14.71
2019-05-02T23:23:52.344Z,14.67
2019-05-02T23:26:29.147Z,14.70
2019-05-02T23:28:59.631Z,14.82
2019-05-02T23:31:25.588Z,14.78
2019-05-02T23:33:57.618Z,14.82
2019-05-02T23:36:25.078Z,14.80
2019-05-02T23:38:52.206Z,14.70
2019-05-02T23:41:18.330Z,14.78
2019-05-02T23:43:44.380Z,14.87
2019-05-02T23:46:11.631Z,14.64
2019-05-02T23:48:37.649Z,14.45
2019-05-02T23:51:03.682Z,14.34
2019-05-02T23:53:31.477Z,14.41
2019-05-02T23:55:57.276Z,14.42
2019-05-02T23:58:23.248Z,14.37
